KYKN/YKN METAR and TAF weather

Enter ICAO airport designator
Station Type Date Time Source
KYKN METAR 2018/12/15 03:56 UTC NOAA

KYKN 150356Z AUTO 00000KT 10SM CLR M05/M07 A3020 RMK AO2 SLP257 T10501067 FZRANO


Station Type Date Time Source
KYKN Decoded METAR 2018/12/15 03:56 UTC NOAA

Yankton, Chan Gurney Municipal Airport, SD, United States (KYKN) 42-55N 097-23W
Dec 14, 2018 - 10:56 PM EST / 2018.12.15 0356 UTC
Wind: Calm:0
Visibility: 10 mile(s):0
Sky conditions: clear
Temperature: 23.0 F (-5.0 C)
Dew Point: 19.9 F (-6.7 C)
Relative Humidity: 87%
Pressure (altimeter): 30.2 in. Hg (1022 hPa)
ob: KYKN 150356Z AUTO 00000KT 10SM CLR M05/M07 A3020 RMK AO2 SLP257 T10501067 FZRANO
cycle: 4

Station Type Date Time Source
KYKN TAF UTC NOAA

Error!


Example: see airport list